sensor_id;sensor_type;location;lat;lon;timestamp;P1;durP1;ratioP1;P2;durP2;ratioP2
11960;SDS011;6040;49.358;11.140;2023-04-03T00:00:20;2.33;;;1.63;;
11960;SDS011;6040;49.358;11.140;2023-04-03T00:02:47;2.40;;;1.97;;
11960;SDS011;6040;49.358;11.140;2023-04-03T00:05:15;1.70;;;1.50;;
11960;SDS011;6040;49.358;11.140;2023-04-03T00:07:42;2.57;;;1.60;;
11960;SDS011;6040;49.358;11.140;2023-04-03T00:10:09;1.73;;;1.47;;
11960;SDS011;6040;49.358;11.140;2023-04-03T00:12:36;1.93;;;1.60;;
11960;SDS011;6040;49.358;11.140;2023-04-03T00:15:03;2.33;;;1.60;;
11960;SDS011;6040;49.358;11.140;2023-04-03T00:17:30;1.70;;;1.40;;
11960;SDS011;6040;49.358;11.140;2023-04-03T00:19:57;2.03;;;1.70;;
11960;SDS011;6040;49.358;11.140;2023-04-03T00:22:25;4.37;;;1.63;;
11960;SDS011;6040;49.358;11.140;2023-04-03T00:24:53;1.60;;;1.50;;
11960;SDS011;6040;49.358;11.140;2023-04-03T00:27:20;1.77;;;1.67;;
11960;SDS011;6040;49.358;11.140;2023-04-03T00:29:47;2.33;;;1.50;;
11960;SDS011;6040;49.358;11.140;2023-04-03T00:32:14;2.03;;;1.80;;
11960;SDS011;6040;49.358;11.140;2023-04-03T00:34:41;2.27;;;2.00;;
11960;SDS011;6040;49.358;11.140;2023-04-03T00:37:08;1.60;;;1.50;;
11960;SDS011;6040;49.358;11.140;2023-04-03T00:39:36;1.80;;;1.70;;
11960;SDS011;6040;49.358;11.140;2023-04-03T00:42:03;3.67;;;1.67;;
11960;SDS011;6040;49.358;11.140;2023-04-03T00:47:33;2.20;;;2.00;;
11960;SDS011;6040;49.358;11.140;2023-04-03T00:50:00;1.83;;;1.60;;
11960;SDS011;6040;49.358;11.140;2023-04-03T00:52:28;3.00;;;1.97;;
11960;SDS011;6040;49.358;11.140;2023-04-03T00:54:58;3.03;;;1.90;;
11960;SDS011;6040;49.358;11.140;2023-04-03T00:57:28;2.87;;;1.83;;
11960;SDS011;6040;49.358;11.140;2023-04-03T00:59:57;2.70;;;1.87;;
11960;SDS011;6040;49.358;11.140;2023-04-03T01:02:28;2.00;;;1.80;;
11960;SDS011;6040;49.358;11.140;2023-04-03T01:04:55;2.10;;;1.90;;
11960;SDS011;6040;49.358;11.140;2023-04-03T01:07:22;1.63;;;1.53;;
11960;SDS011;6040;49.358;11.140;2023-04-03T01:09:53;2.00;;;1.80;;
11960;SDS011;6040;49.358;11.140;2023-04-03T01:12:25;2.33;;;1.87;;
11960;SDS011;6040;49.358;11.140;2023-04-03T01:14:54;2.03;;;1.80;;
11960;SDS011;6040;49.358;11.140;2023-04-03T01:17:27;4.20;;;1.57;;
11960;SDS011;6040;49.358;11.140;2023-04-03T01:19:57;2.10;;;1.77;;
11960;SDS011;6040;49.358;11.140;2023-04-03T01:22:52;1.70;;;1.60;;
11960;SDS011;6040;49.358;11.140;2023-04-03T01:25:25;1.97;;;1.80;;
11960;SDS011;6040;49.358;11.140;2023-04-03T01:27:53;1.90;;;1.70;;
11960;SDS011;6040;49.358;11.140;2023-04-03T01:30:21;2.80;;;1.60;;
11960;SDS011;6040;49.358;11.140;2023-04-03T01:32:55;3.70;;;1.90;;
11960;SDS011;6040;49.358;11.140;2023-04-03T01:35:22;1.60;;;1.50;;
11960;SDS011;6040;49.358;11.140;2023-04-03T01:37:49;1.73;;;1.63;;
11960;SDS011;6040;49.358;11.140;2023-04-03T01:40:15;2.13;;;1.70;;
11960;SDS011;6040;49.358;11.140;2023-04-03T01:42:42;1.80;;;1.70;;
11960;SDS011;6040;49.358;11.140;2023-04-03T01:45:10;1.53;;;1.43;;
11960;SDS011;6040;49.358;11.140;2023-04-03T01:47:37;1.70;;;1.60;;
11960;SDS011;6040;49.358;11.140;2023-04-03T01:50:05;2.03;;;1.70;;
11960;SDS011;6040;49.358;11.140;2023-04-03T01:52:33;2.07;;;1.87;;
11960;SDS011;6040;49.358;11.140;2023-04-03T01:54:59;2.90;;;1.90;;
11960;SDS011;6040;49.358;11.140;2023-04-03T01:57:26;1.97;;;1.77;;
11960;SDS011;6040;49.358;11.140;2023-04-03T01:59:53;4.80;;;1.80;;
11960;SDS011;6040;49.358;11.140;2023-04-03T02:02:20;1.87;;;1.77;;
11960;SDS011;6040;49.358;11.140;2023-04-03T02:04:47;3.70;;;1.70;;
11960;SDS011;6040;49.358;11.140;2023-04-03T02:07:15;2.90;;;1.80;;
11960;SDS011;6040;49.358;11.140;2023-04-03T02:09:42;1.87;;;1.57;;
11960;SDS011;6040;49.358;11.140;2023-04-03T02:12:09;2.63;;;1.80;;
11960;SDS011;6040;49.358;11.140;2023-04-03T02:14:35;2.10;;;1.90;;
11960;SDS011;6040;49.358;11.140;2023-04-03T02:17:02;2.07;;;1.87;;
11960;SDS011;6040;49.358;11.140;2023-04-03T02:19:33;2.37;;;1.60;;
11960;SDS011;6040;49.358;11.140;2023-04-03T02:22:00;2.40;;;2.00;;
11960;SDS011;6040;49.358;11.140;2023-04-03T02:24:28;1.77;;;1.53;;
11960;SDS011;6040;49.358;11.140;2023-04-03T02:26:55;1.80;;;1.70;;
11960;SDS011;6040;49.358;11.140;2023-04-03T02:29:22;2.47;;;1.90;;
11960;SDS011;6040;49.358;11.140;2023-04-03T02:31:49;2.23;;;1.80;;
11960;SDS011;6040;49.358;11.140;2023-04-03T02:34:16;2.30;;;1.70;;
11960;SDS011;6040;49.358;11.140;2023-04-03T02:36:43;1.70;;;1.60;;
11960;SDS011;6040;49.358;11.140;2023-04-03T02:39:10;2.70;;;1.90;;
11960;SDS011;6040;49.358;11.140;2023-04-03T02:41:38;3.37;;;1.80;;
11960;SDS011;6040;49.358;11.140;2023-04-03T02:44:06;1.40;;;1.30;;
11960;SDS011;6040;49.358;11.140;2023-04-03T02:46:35;2.97;;;1.70;;
11960;SDS011;6040;49.358;11.140;2023-04-03T02:49:01;2.60;;;1.87;;
11960;SDS011;6040;49.358;11.140;2023-04-03T02:51:29;1.63;;;1.53;;
11960;SDS011;6040;49.358;11.140;2023-04-03T02:53:55;1.97;;;1.73;;
11960;SDS011;6040;49.358;11.140;2023-04-03T02:56:22;2.07;;;1.83;;
11960;SDS011;6040;49.358;11.140;2023-04-03T02:58:51;1.87;;;1.60;;
11960;SDS011;6040;49.358;11.140;2023-04-03T03:01:17;2.17;;;1.53;;
11960;SDS011;6040;49.358;11.140;2023-04-03T03:03:44;2.00;;;1.63;;
11960;SDS011;6040;49.358;11.140;2023-04-03T03:06:12;1.50;;;1.40;;
11960;SDS011;6040;49.358;11.140;2023-04-03T03:08:41;2.03;;;1.67;;
11960;SDS011;6040;49.358;11.140;2023-04-03T03:11:08;2.33;;;1.77;;
11960;SDS011;6040;49.358;11.140;2023-04-03T03:13:36;2.57;;;1.90;;
11960;SDS011;6040;49.358;11.140;2023-04-03T03:16:04;1.63;;;1.53;;
11960;SDS011;6040;49.358;11.140;2023-04-03T03:18:31;3.37;;;1.67;;
11960;SDS011;6040;49.358;11.140;2023-04-03T03:20:59;2.80;;;1.80;;
11960;SDS011;6040;49.358;11.140;2023-04-03T03:23:27;2.90;;;1.77;;
11960;SDS011;6040;49.358;11.140;2023-04-03T03:25:55;1.83;;;1.67;;
11960;SDS011;6040;49.358;11.140;2023-04-03T03:28:22;3.07;;;1.57;;
11960;SDS011;6040;49.358;11.140;2023-04-03T03:30:49;3.10;;;1.67;;
11960;SDS011;6040;49.358;11.140;2023-04-03T03:33:17;2.87;;;1.83;;
11960;SDS011;6040;49.358;11.140;2023-04-03T03:35:44;1.80;;;1.70;;
11960;SDS011;6040;49.358;11.140;2023-04-03T03:38:11;2.47;;;1.53;;
11960;SDS011;6040;49.358;11.140;2023-04-03T03:40:38;1.80;;;1.70;;
11960;SDS011;6040;49.358;11.140;2023-04-03T03:43:05;3.17;;;1.63;;
11960;SDS011;6040;49.358;11.140;2023-04-03T03:45:32;3.50;;;1.83;;
11960;SDS011;6040;49.358;11.140;2023-04-03T03:47:59;2.60;;;1.67;;
11960;SDS011;6040;49.358;11.140;2023-04-03T03:50:28;2.40;;;1.53;;
11960;SDS011;6040;49.358;11.140;2023-04-03T03:52:55;2.07;;;1.80;;
11960;SDS011;6040;49.358;11.140;2023-04-03T03:55:21;2.57;;;1.90;;
11960;SDS011;6040;49.358;11.140;2023-04-03T03:57:48;2.20;;;1.70;;
11960;SDS011;6040;49.358;11.140;2023-04-03T04:00:15;4.07;;;1.70;;
11960;SDS011;6040;49.358;11.140;2023-04-03T04:02:42;2.20;;;2.00;;
11960;SDS011;6040;49.358;11.140;2023-04-03T04:05:10;2.73;;;2.00;;
11960;SDS011;6040;49.358;11.140;2023-04-03T04:07:38;2.90;;;2.30;;
11960;SDS011;6040;49.358;11.140;2023-04-03T04:10:05;2.50;;;1.80;;
11960;SDS011;6040;49.358;11.140;2023-04-03T04:12:32;2.03;;;1.73;;
11960;SDS011;6040;49.358;11.140;2023-04-03T04:15:00;4.77;;;2.10;;
11960;SDS011;6040;49.358;11.140;2023-04-03T04:17:27;3.07;;;1.67;;
11960;SDS011;6040;49.358;11.140;2023-04-03T04:19:57;4.57;;;1.77;;
11960;SDS011;6040;49.358;11.140;2023-04-03T04:22:23;3.67;;;1.93;;
11960;SDS011;6040;49.358;11.140;2023-04-03T04:24:52;3.13;;;2.10;;
11960;SDS011;6040;49.358;11.140;2023-04-03T04:27:18;2.63;;;1.90;;
11960;SDS011;6040;49.358;11.140;2023-04-03T04:29:45;4.73;;;2.10;;
11960;SDS011;6040;49.358;11.140;2023-04-03T04:32:12;2.13;;;1.80;;
11960;SDS011;6040;49.358;11.140;2023-04-03T04:34:39;3.90;;;2.13;;
11960;SDS011;6040;49.358;11.140;2023-04-03T04:37:06;3.27;;;2.10;;
11960;SDS011;6040;49.358;11.140;2023-04-03T04:39:33;2.57;;;1.97;;
11960;SDS011;6040;49.358;11.140;2023-04-03T04:42:02;3.47;;;2.07;;
11960;SDS011;6040;49.358;11.140;2023-04-03T04:44:29;4.30;;;1.70;;
11960;SDS011;6040;49.358;11.140;2023-04-03T04:46:56;2.00;;;1.80;;
11960;SDS011;6040;49.358;11.140;2023-04-03T04:49:23;2.27;;;1.90;;
11960;SDS011;6040;49.358;11.140;2023-04-03T04:51:49;4.00;;;2.30;;
11960;SDS011;6040;49.358;11.140;2023-04-03T04:54:16;3.63;;;2.10;;
11960;SDS011;6040;49.358;11.140;2023-04-03T04:56:43;4.03;;;2.00;;
11960;SDS011;6040;49.358;11.140;2023-04-03T04:59:11;4.00;;;1.73;;
11960;SDS011;6040;49.358;11.140;2023-04-03T05:01:38;5.03;;;2.37;;
11960;SDS011;6040;49.358;11.140;2023-04-03T05:04:05;6.07;;;2.30;;
11960;SDS011;6040;49.358;11.140;2023-04-03T05:06:32;2.97;;;2.10;;
11960;SDS011;6040;49.358;11.140;2023-04-03T05:09:00;3.47;;;2.10;;
11960;SDS011;6040;49.358;11.140;2023-04-03T05:11:27;2.67;;;1.77;;
11960;SDS011;6040;49.358;11.140;2023-04-03T05:13:54;3.73;;;2.37;;
11960;SDS011;6040;49.358;11.140;2023-04-03T05:16:22;2.57;;;2.27;;
11960;SDS011;6040;49.358;11.140;2023-04-03T05:18:49;3.67;;;2.30;;
11960;SDS011;6040;49.358;11.140;2023-04-03T05:21:15;3.23;;;2.60;;
11960;SDS011;6040;49.358;11.140;2023-04-03T05:23:43;3.50;;;2.80;;
11960;SDS011;6040;49.358;11.140;2023-04-03T05:26:10;2.23;;;2.03;;
11960;SDS011;6040;49.358;11.140;2023-04-03T05:28:37;2.77;;;2.17;;
11960;SDS011;6040;49.358;11.140;2023-04-03T05:31:03;3.03;;;2.10;;
11960;SDS011;6040;49.358;11.140;2023-04-03T05:33:32;4.60;;;2.50;;
11960;SDS011;6040;49.358;11.140;2023-04-03T05:36:01;4.77;;;2.30;;
11960;SDS011;6040;49.358;11.140;2023-04-03T05:38:29;5.60;;;2.43;;
11960;SDS011;6040;49.358;11.140;2023-04-03T05:40:56;3.17;;;2.07;;
11960;SDS011;6040;49.358;11.140;2023-04-03T05:43:23;2.37;;;2.00;;
11960;SDS011;6040;49.358;11.140;2023-04-03T05:45:50;3.00;;;2.20;;
11960;SDS011;6040;49.358;11.140;2023-04-03T05:48:18;3.07;;;2.57;;
11960;SDS011;6040;49.358;11.140;2023-04-03T05:50:46;3.80;;;2.50;;
11960;SDS011;6040;49.358;11.140;2023-04-03T05:53:15;4.17;;;2.23;;
11960;SDS011;6040;49.358;11.140;2023-04-03T05:55:47;4.73;;;2.10;;
11960;SDS011;6040;49.358;11.140;2023-04-03T05:58:14;3.07;;;2.33;;
11960;SDS011;6040;49.358;11.140;2023-04-03T06:00:41;2.73;;;2.30;;
11960;SDS011;6040;49.358;11.140;2023-04-03T06:03:07;2.93;;;2.00;;
11960;SDS011;6040;49.358;11.140;2023-04-03T06:05:35;3.30;;;2.10;;
11960;SDS011;6040;49.358;11.140;2023-04-03T06:08:04;2.67;;;2.20;;
11960;SDS011;6040;49.358;11.140;2023-04-03T06:10:31;5.97;;;2.40;;
11960;SDS011;6040;49.358;11.140;2023-04-03T06:12:58;2.37;;;2.17;;
11960;SDS011;6040;49.358;11.140;2023-04-03T06:15:25;4.93;;;2.47;;
11960;SDS011;6040;49.358;11.140;2023-04-03T06:17:52;3.13;;;2.43;;
11960;SDS011;6040;49.358;11.140;2023-04-03T06:20:19;4.37;;;2.40;;
11960;SDS011;6040;49.358;11.140;2023-04-03T06:22:47;3.53;;;2.57;;
11960;SDS011;6040;49.358;11.140;2023-04-03T06:25:15;3.30;;;2.40;;
11960;SDS011;6040;49.358;11.140;2023-04-03T06:27:43;4.77;;;2.40;;
11960;SDS011;6040;49.358;11.140;2023-04-03T06:30:11;3.87;;;2.27;;
11960;SDS011;6040;49.358;11.140;2023-04-03T06:32:38;2.23;;;2.03;;
11960;SDS011;6040;49.358;11.140;2023-04-03T06:35:05;3.83;;;2.60;;
11960;SDS011;6040;49.358;11.140;2023-04-03T06:37:33;4.67;;;2.87;;
11960;SDS011;6040;49.358;11.140;2023-04-03T06:40:00;3.97;;;2.50;;
11960;SDS011;6040;49.358;11.140;2023-04-03T06:42:29;3.47;;;2.47;;
11960;SDS011;6040;49.358;11.140;2023-04-03T06:44:56;2.87;;;2.53;;
11960;SDS011;6040;49.358;11.140;2023-04-03T06:47:23;5.50;;;2.70;;
11960;SDS011;6040;49.358;11.140;2023-04-03T06:49:50;2.57;;;2.30;;
11960;SDS011;6040;49.358;11.140;2023-04-03T06:52:17;7.30;;;2.80;;
11960;SDS011;6040;49.358;11.140;2023-04-03T06:54:43;4.67;;;2.50;;
11960;SDS011;6040;49.358;11.140;2023-04-03T06:57:10;4.43;;;2.27;;
11960;SDS011;6040;49.358;11.140;2023-04-03T06:59:39;3.23;;;2.20;;
11960;SDS011;6040;49.358;11.140;2023-04-03T07:02:06;4.97;;;2.70;;
11960;SDS011;6040;49.358;11.140;2023-04-03T07:04:35;3.50;;;2.80;;
11960;SDS011;6040;49.358;11.140;2023-04-03T07:07:02;3.60;;;2.33;;
11960;SDS011;6040;49.358;11.140;2023-04-03T07:09:28;4.00;;;2.70;;
11960;SDS011;6040;49.358;11.140;2023-04-03T07:11:55;7.57;;;3.47;;
11960;SDS011;6040;49.358;11.140;2023-04-03T07:14:22;5.00;;;3.27;;
11960;SDS011;6040;49.358;11.140;2023-04-03T07:16:50;4.97;;;2.90;;
11960;SDS011;6040;49.358;11.140;2023-04-03T07:19:17;6.00;;;2.57;;
11960;SDS011;6040;49.358;11.140;2023-04-03T07:21:44;3.50;;;2.33;;
11960;SDS011;6040;49.358;11.140;2023-04-03T07:24:11;6.87;;;2.37;;
11960;SDS011;6040;49.358;11.140;2023-04-03T07:26:37;6.57;;;2.40;;
11960;SDS011;6040;49.358;11.140;2023-04-03T07:29:04;4.13;;;2.90;;
11960;SDS011;6040;49.358;11.140;2023-04-03T07:31:31;4.73;;;2.50;;
11960;SDS011;6040;49.358;11.140;2023-04-03T07:34:00;3.80;;;2.63;;
11960;SDS011;6040;49.358;11.140;2023-04-03T07:36:26;5.10;;;2.57;;
11960;SDS011;6040;49.358;11.140;2023-04-03T07:38:54;4.30;;;2.20;;
11960;SDS011;6040;49.358;11.140;2023-04-03T07:41:21;3.93;;;2.03;;
11960;SDS011;6040;49.358;11.140;2023-04-03T07:43:48;5.97;;;2.60;;
11960;SDS011;6040;49.358;11.140;2023-04-03T07:46:15;3.97;;;2.20;;
11960;SDS011;6040;49.358;11.140;2023-04-03T07:48:43;4.20;;;2.60;;
11960;SDS011;6040;49.358;11.140;2023-04-03T07:51:12;3.60;;;2.03;;
11960;SDS011;6040;49.358;11.140;2023-04-03T07:53:39;4.83;;;1.97;;
11960;SDS011;6040;49.358;11.140;2023-04-03T07:56:07;3.00;;;2.20;;
11960;SDS011;6040;49.358;11.140;2023-04-03T07:58:34;3.37;;;1.97;;
11960;SDS011;6040;49.358;11.140;2023-04-03T08:01:02;5.43;;;2.80;;
11960;SDS011;6040;49.358;11.140;2023-04-03T08:03:29;2.87;;;1.97;;
11960;SDS011;6040;49.358;11.140;2023-04-03T08:06:00;3.70;;;2.10;;
11960;SDS011;6040;49.358;11.140;2023-04-03T08:08:30;4.73;;;2.17;;
11960;SDS011;6040;49.358;11.140;2023-04-03T08:10:58;3.57;;;2.10;;
11960;SDS011;6040;49.358;11.140;2023-04-03T08:13:27;3.43;;;1.97;;
11960;SDS011;6040;49.358;11.140;2023-04-03T08:15:55;6.40;;;3.57;;
11960;SDS011;6040;49.358;11.140;2023-04-03T08:18:24;2.93;;;1.67;;
11960;SDS011;6040;49.358;11.140;2023-04-03T08:20:51;3.13;;;2.03;;
11960;SDS011;6040;49.358;11.140;2023-04-03T08:23:18;4.10;;;1.80;;
11960;SDS011;6040;49.358;11.140;2023-04-03T08:25:47;2.77;;;2.07;;
11960;SDS011;6040;49.358;11.140;2023-04-03T08:28:14;6.53;;;2.67;;
11960;SDS011;6040;49.358;11.140;2023-04-03T08:30:41;4.10;;;2.60;;
11960;SDS011;6040;49.358;11.140;2023-04-03T08:33:09;2.43;;;2.00;;
11960;SDS011;6040;49.358;11.140;2023-04-03T08:35:38;4.40;;;2.20;;
11960;SDS011;6040;49.358;11.140;2023-04-03T08:38:05;2.77;;;2.30;;
11960;SDS011;6040;49.358;11.140;2023-04-03T08:40:32;5.70;;;3.37;;
11960;SDS011;6040;49.358;11.140;2023-04-03T08:43:03;4.87;;;2.30;;
11960;SDS011;6040;49.358;11.140;2023-04-03T08:45:43;5.43;;;3.00;;
11960;SDS011;6040;49.358;11.140;2023-04-03T08:48:13;2.90;;;1.70;;
11960;SDS011;6040;49.358;11.140;2023-04-03T08:50:45;4.13;;;2.40;;
11960;SDS011;6040;49.358;11.140;2023-04-03T08:53:15;4.43;;;2.20;;
11960;SDS011;6040;49.358;11.140;2023-04-03T08:55:45;3.40;;;2.13;;
11960;SDS011;6040;49.358;11.140;2023-04-03T08:58:16;5.07;;;2.60;;
11960;SDS011;6040;49.358;11.140;2023-04-03T09:00:45;2.27;;;2.07;;
11960;SDS011;6040;49.358;11.140;2023-04-03T09:03:15;3.53;;;2.33;;
11960;SDS011;6040;49.358;11.140;2023-04-03T09:05:47;4.20;;;2.20;;
11960;SDS011;6040;49.358;11.140;2023-04-03T09:08:23;2.77;;;2.10;;
11960;SDS011;6040;49.358;11.140;2023-04-03T09:10:55;4.83;;;1.97;;
11960;SDS011;6040;49.358;11.140;2023-04-03T09:13:33;2.37;;;1.70;;
11960;SDS011;6040;49.358;11.140;2023-04-03T09:16:10;3.17;;;1.80;;
11960;SDS011;6040;49.358;11.140;2023-04-03T09:18:48;3.47;;;1.90;;
11960;SDS011;6040;49.358;11.140;2023-04-03T09:21:20;1.97;;;1.67;;
11960;SDS011;6040;49.358;11.140;2023-04-03T09:23:51;2.17;;;1.60;;
11960;SDS011;6040;49.358;11.140;2023-04-03T09:26:21;1.67;;;1.50;;
11960;SDS011;6040;49.358;11.140;2023-04-03T09:28:53;1.30;;;1.20;;
11960;SDS011;6040;49.358;11.140;2023-04-03T09:31:24;3.10;;;1.80;;
11960;SDS011;6040;49.358;11.140;2023-04-03T09:33:53;2.53;;;1.33;;
11960;SDS011;6040;49.358;11.140;2023-04-03T09:36:39;1.67;;;1.27;;
11960;SDS011;6040;49.358;11.140;2023-04-03T09:39:10;2.93;;;1.97;;
11960;SDS011;6040;49.358;11.140;2023-04-03T09:41:38;4.37;;;1.80;;
11960;SDS011;6040;49.358;11.140;2023-04-03T09:44:18;2.60;;;1.50;;
11960;SDS011;6040;49.358;11.140;2023-04-03T09:46:48;3.03;;;1.90;;
11960;SDS011;6040;49.358;11.140;2023-04-03T09:49:14;3.33;;;2.03;;
11960;SDS011;6040;49.358;11.140;2023-04-03T09:51:42;1.87;;;1.70;;
11960;SDS011;6040;49.358;11.140;2023-04-03T09:57:01;3.47;;;2.07;;
11960;SDS011;6040;49.358;11.140;2023-04-03T09:59:34;2.17;;;1.90;;
11960;SDS011;6040;49.358;11.140;2023-04-03T10:02:02;3.40;;;1.77;;
11960;SDS011;6040;49.358;11.140;2023-04-03T10:04:40;2.80;;;1.70;;
11960;SDS011;6040;49.358;11.140;2023-04-03T10:09:54;2.70;;;1.83;;
11960;SDS011;6040;49.358;11.140;2023-04-03T10:12:22;5.80;;;2.37;;
11960;SDS011;6040;49.358;11.140;2023-04-03T10:14:55;2.03;;;1.33;;
11960;SDS011;6040;49.358;11.140;2023-04-03T10:17:24;2.00;;;1.50;;
11960;SDS011;6040;49.358;11.140;2023-04-03T10:20:07;1.63;;;1.53;;
11960;SDS011;6040;49.358;11.140;2023-04-03T10:22:49;3.30;;;1.80;;
11960;SDS011;6040;49.358;11.140;2023-04-03T10:25:24;3.23;;;1.93;;
11960;SDS011;6040;49.358;11.140;2023-04-03T10:27:58;3.33;;;1.93;;
11960;SDS011;6040;49.358;11.140;2023-04-03T10:30:31;2.13;;;1.50;;
11960;SDS011;6040;49.358;11.140;2023-04-03T10:33:08;2.40;;;1.70;;
11960;SDS011;6040;49.358;11.140;2023-04-03T10:35:48;2.87;;;1.50;;
11960;SDS011;6040;49.358;11.140;2023-04-03T10:38:27;3.10;;;1.50;;
11960;SDS011;6040;49.358;11.140;2023-04-03T10:40:59;3.73;;;1.63;;
11960;SDS011;6040;49.358;11.140;2023-04-03T10:43:33;2.57;;;1.90;;
11960;SDS011;6040;49.358;11.140;2023-04-03T10:46:06;1.80;;;1.70;;
11960;SDS011;6040;49.358;11.140;2023-04-03T10:48:43;1.67;;;1.53;;
11960;SDS011;6040;49.358;11.140;2023-04-03T10:51:22;2.17;;;1.40;;
11960;SDS011;6040;49.358;11.140;2023-04-03T10:53:54;2.73;;;1.60;;
11960;SDS011;6040;49.358;11.140;2023-04-03T10:56:30;2.13;;;1.50;;
11960;SDS011;6040;49.358;11.140;2023-04-03T10:59:02;1.97;;;1.50;;
11960;SDS011;6040;49.358;11.140;2023-04-03T11:01:44;1.83;;;1.30;;
11960;SDS011;6040;49.358;11.140;2023-04-03T11:04:14;2.70;;;1.70;;
11960;SDS011;6040;49.358;11.140;2023-04-03T11:06:43;3.47;;;1.43;;
11960;SDS011;6040;49.358;11.140;2023-04-03T11:09:18;2.53;;;2.00;;
11960;SDS011;6040;49.358;11.140;2023-04-03T11:11:51;1.60;;;1.40;;
11960;SDS011;6040;49.358;11.140;2023-04-03T11:14:24;3.60;;;1.50;;
11960;SDS011;6040;49.358;11.140;2023-04-03T11:17:01;2.37;;;1.50;;
11960;SDS011;6040;49.358;11.140;2023-04-03T11:19:39;1.87;;;1.40;;
11960;SDS011;6040;49.358;11.140;2023-04-03T11:22:13;2.20;;;1.50;;
11960;SDS011;6040;49.358;11.140;2023-04-03T11:24:50;3.20;;;1.50;;
11960;SDS011;6040;49.358;11.140;2023-04-03T11:27:23;2.57;;;1.53;;
11960;SDS011;6040;49.358;11.140;2023-04-03T11:29:52;1.73;;;1.30;;
11960;SDS011;6040;49.358;11.140;2023-04-03T11:32:31;2.57;;;1.43;;
11960;SDS011;6040;49.358;11.140;2023-04-03T11:35:14;2.23;;;1.50;;
11960;SDS011;6040;49.358;11.140;2023-04-03T11:37:44;1.73;;;1.50;;
11960;SDS011;6040;49.358;11.140;2023-04-03T11:40:19;2.30;;;1.33;;
11960;SDS011;6040;49.358;11.140;2023-04-03T11:42:49;1.93;;;1.40;;
11960;SDS011;6040;49.358;11.140;2023-04-03T11:45:34;1.40;;;1.30;;
11960;SDS011;6040;49.358;11.140;2023-04-03T11:48:04;1.93;;;1.50;;
11960;SDS011;6040;49.358;11.140;2023-04-03T11:50:39;2.10;;;1.53;;
11960;SDS011;6040;49.358;11.140;2023-04-03T11:53:28;1.70;;;1.30;;
11960;SDS011;6040;49.358;11.140;2023-04-03T11:55:58;1.63;;;1.37;;
11960;SDS011;6040;49.358;11.140;2023-04-03T11:58:26;2.53;;;1.70;;
11960;SDS011;6040;49.358;11.140;2023-04-03T12:00:59;2.50;;;1.50;;
11960;SDS011;6040;49.358;11.140;2023-04-03T12:12:43;1.70;;;1.33;;
11960;SDS011;6040;49.358;11.140;2023-04-03T12:24:27;1.40;;;1.27;;
11960;SDS011;6040;49.358;11.140;2023-04-03T12:27:02;1.87;;;1.43;;
11960;SDS011;6040;49.358;11.140;2023-04-03T12:29:33;1.77;;;1.30;;
11960;SDS011;6040;49.358;11.140;2023-04-03T12:32:08;2.80;;;1.60;;
11960;SDS011;6040;49.358;11.140;2023-04-03T12:34:42;1.30;;;1.10;;
11960;SDS011;6040;49.358;11.140;2023-04-03T12:37:21;1.57;;;1.13;;
11960;SDS011;6040;49.358;11.140;2023-04-03T12:40:09;1.33;;;1.10;;
11960;SDS011;6040;49.358;11.140;2023-04-03T12:42:47;1.50;;;1.40;;
11960;SDS011;6040;49.358;11.140;2023-04-03T12:45:43;1.50;;;1.40;;
11960;SDS011;6040;49.358;11.140;2023-04-03T12:48:13;2.27;;;1.40;;
11960;SDS011;6040;49.358;11.140;2023-04-03T12:50:41;1.10;;;1.00;;
11960;SDS011;6040;49.358;11.140;2023-04-03T12:53:12;1.10;;;1.00;;
11960;SDS011;6040;49.358;11.140;2023-04-03T12:55:43;1.23;;;1.10;;
11960;SDS011;6040;49.358;11.140;2023-04-03T12:58:14;1.20;;;1.10;;
11960;SDS011;6040;49.358;11.140;2023-04-03T13:00:58;1.67;;;1.30;;
11960;SDS011;6040;49.358;11.140;2023-04-03T13:03:26;1.63;;;1.40;;
11960;SDS011;6040;49.358;11.140;2023-04-03T13:05:54;2.50;;;1.20;;
11960;SDS011;6040;49.358;11.140;2023-04-03T13:08:22;2.27;;;1.33;;
11960;SDS011;6040;49.358;11.140;2023-04-03T13:10:52;5.07;;;1.43;;
11960;SDS011;6040;49.358;11.140;2023-04-03T13:13:22;2.70;;;1.40;;
11960;SDS011;6040;49.358;11.140;2023-04-03T13:15:49;3.17;;;1.37;;
11960;SDS011;6040;49.358;11.140;2023-04-03T13:18:24;3.77;;;1.40;;
11960;SDS011;6040;49.358;11.140;2023-04-03T13:20:58;2.30;;;1.33;;
11960;SDS011;6040;49.358;11.140;2023-04-03T13:23:29;1.53;;;1.30;;
11960;SDS011;6040;49.358;11.140;2023-04-03T13:25:57;3.37;;;1.50;;
11960;SDS011;6040;49.358;11.140;2023-04-03T13:28:28;1.27;;;1.10;;
11960;SDS011;6040;49.358;11.140;2023-04-03T13:30:59;1.77;;;1.30;;
11960;SDS011;6040;49.358;11.140;2023-04-03T13:33:31;2.30;;;1.13;;
11960;SDS011;6040;49.358;11.140;2023-04-03T13:36:03;1.87;;;1.20;;
11960;SDS011;6040;49.358;11.140;2023-04-03T13:38:32;1.20;;;1.10;;
11960;SDS011;6040;49.358;11.140;2023-04-03T13:41:04;1.43;;;1.10;;
11960;SDS011;6040;49.358;11.140;2023-04-03T13:43:47;2.57;;;1.27;;
11960;SDS011;6040;49.358;11.140;2023-04-03T13:46:22;2.53;;;1.23;;
11960;SDS011;6040;49.358;11.140;2023-04-03T13:48:52;1.43;;;1.00;;
11960;SDS011;6040;49.358;11.140;2023-04-03T13:51:21;2.50;;;1.20;;
11960;SDS011;6040;49.358;11.140;2023-04-03T13:53:51;1.43;;;1.00;;
11960;SDS011;6040;49.358;11.140;2023-04-03T13:56:23;1.27;;;1.00;;
11960;SDS011;6040;49.358;11.140;2023-04-03T13:58:58;1.07;;;0.97;;
11960;SDS011;6040;49.358;11.140;2023-04-03T14:01:33;1.37;;;1.03;;
11960;SDS011;6040;49.358;11.140;2023-04-03T14:04:10;1.87;;;1.40;;
11960;SDS011;6040;49.358;11.140;2023-04-03T14:06:43;2.17;;;1.10;;
11960;SDS011;6040;49.358;11.140;2023-04-03T14:09:10;2.67;;;1.30;;
11960;SDS011;6040;49.358;11.140;2023-04-03T14:11:39;2.57;;;1.20;;
11960;SDS011;6040;49.358;11.140;2023-04-03T14:14:10;1.50;;;1.20;;
11960;SDS011;6040;49.358;11.140;2023-04-03T14:16:41;1.77;;;1.37;;
11960;SDS011;6040;49.358;11.140;2023-04-03T14:19:14;3.53;;;1.50;;
11960;SDS011;6040;49.358;11.140;2023-04-03T14:21:45;2.43;;;1.43;;
11960;SDS011;6040;49.358;11.140;2023-04-03T14:24:12;2.17;;;1.50;;
11960;SDS011;6040;49.358;11.140;2023-04-03T14:26:40;1.40;;;1.20;;
11960;SDS011;6040;49.358;11.140;2023-04-03T14:29:09;1.60;;;1.33;;
11960;SDS011;6040;49.358;11.140;2023-04-03T14:31:37;1.70;;;1.30;;
11960;SDS011;6040;49.358;11.140;2023-04-03T14:34:04;1.30;;;1.20;;
11960;SDS011;6040;49.358;11.140;2023-04-03T14:36:31;1.33;;;1.20;;
11960;SDS011;6040;49.358;11.140;2023-04-03T14:38:59;1.40;;;1.30;;
11960;SDS011;6040;49.358;11.140;2023-04-03T14:41:27;1.40;;;1.30;;
11960;SDS011;6040;49.358;11.140;2023-04-03T14:43:55;2.20;;;1.27;;
11960;SDS011;6040;49.358;11.140;2023-04-03T14:46:24;1.40;;;1.27;;
11960;SDS011;6040;49.358;11.140;2023-04-03T14:48:54;2.10;;;1.27;;
11960;SDS011;6040;49.358;11.140;2023-04-03T14:51:21;2.87;;;1.40;;
11960;SDS011;6040;49.358;11.140;2023-04-03T14:53:48;1.43;;;1.33;;
11960;SDS011;6040;49.358;11.140;2023-04-03T14:56:17;2.50;;;1.00;;
11960;SDS011;6040;49.358;11.140;2023-04-03T14:58:47;2.70;;;1.53;;
11960;SDS011;6040;49.358;11.140;2023-04-03T15:01:17;2.03;;;1.50;;
11960;SDS011;6040;49.358;11.140;2023-04-03T15:03:44;1.73;;;1.10;;
11960;SDS011;6040;49.358;11.140;2023-04-03T15:06:11;2.10;;;1.33;;
11960;SDS011;6040;49.358;11.140;2023-04-03T15:08:39;3.87;;;1.50;;
11960;SDS011;6040;49.358;11.140;2023-04-03T15:11:07;1.80;;;1.33;;
11960;SDS011;6040;49.358;11.140;2023-04-03T15:13:35;2.37;;;1.70;;
11960;SDS011;6040;49.358;11.140;2023-04-03T15:16:02;3.20;;;1.40;;
11960;SDS011;6040;49.358;11.140;2023-04-03T15:18:33;1.60;;;1.20;;
11960;SDS011;6040;49.358;11.140;2023-04-03T15:21:03;3.27;;;1.37;;
11960;SDS011;6040;49.358;11.140;2023-04-03T15:23:31;3.57;;;1.70;;
11960;SDS011;6040;49.358;11.140;2023-04-03T15:25:58;3.00;;;1.50;;
11960;SDS011;6040;49.358;11.140;2023-04-03T15:28:25;2.30;;;1.33;;